»·PEaware :: AAL485 KBFL-KSAN

AAL485 :: KBFL-KSAN

FLIGHT INFORMATION

Flight Status: Arrived
Operator:
American Airlines
More flights by this operator :: More flights under this callsign
Pilot: Anonymous 39875 (39875)
Aircraft: EMBRAER EMB-170/175
(E170)
More flights by this aircraft type
Origin: KBFL Meadows
United States
Destination: KSAN San Diego Intl-Lindbergh
United States
More flights between these airports :: More routes between these airports
Route: MEADO5 HUULK COMIX2
File this flight plan on PilotEdge
Remarks: RMK / SIMBRIEF. You all are the best!
Altitude:
(Current/Filed)
23,000ft
Speed:
(Current/Filed)
400kts
Departed: 13-Jan-23 05:35 PM
Arrived: 13-Jan-23 06:17 PM
Distance/Time
Traveled:
186nm/0:42
Distance/Time
To Go:
Arrived

Flight Plot

Page will automatically refresh every two minutes.

Flight plan parsing failed; only flown route is shown


Map Options




Map Legend


Flown Route
Filed Route
Departure Airport
Arrival Airport
Navaid (VOR, NDB)
Fix

Horizontal Profiles

Position Reports

Time Latitude Longitude Heading Altitude Ground
Speed
13-Jan-23 17:18 35.436905 -119.054872 44 517ft 0kts
13-Jan-23 17:19 35.436905 -119.054872 44 517ft 0kts
13-Jan-23 17:20 35.436905 -119.054872 44 517ft 0kts
13-Jan-23 17:21 35.436905 -119.054872 44 517ft 0kts
13-Jan-23 17:22 35.436905 -119.054872 44 517ft 0kts
13-Jan-23 17:23 35.436905 -119.054872 44 517ft 0kts
13-Jan-23 17:24 35.436794 -119.055015 53 517ft 2kts
13-Jan-23 17:25 35.436828 -119.055547 135 517ft 0kts
13-Jan-23 17:26 35.436828 -119.055547 135 517ft 0kts
13-Jan-23 17:27 35.435756 -119.055364 202 517ft 10kts
13-Jan-23 17:28 35.432812 -119.052685 135 517ft 10kts
13-Jan-23 17:30 35.429947 -119.049218 135 517ft 19kts
13-Jan-23 17:31 35.426745 -119.045367 135 517ft 12kts
13-Jan-23 17:32 35.425725 -119.044623 226 517ft 0kts
13-Jan-23 17:33 35.425724 -119.044624 226 517ft 0kts
13-Jan-23 17:34 35.425663 -119.046351 318 517ft 12kts
13-Jan-23 17:35 35.453316 -119.081905 313 1779ft 208kts
13-Jan-23 17:36 35.489638 -119.137930 284 4259ft 213kts
13-Jan-23 17:37 35.452892 -119.185479 194 6817ft 230kts
13-Jan-23 17:38 35.385360 -119.201277 192 9341ft 253kts
13-Jan-23 17:39 35.317399 -119.173930 150 11888ft 303kts
13-Jan-23 17:40 35.244166 -119.112991 154 14407ft 329kts
13-Jan-23 17:41 35.165405 -119.050895 155 16683ft 344kts
13-Jan-23 17:42 35.083447 -118.986597 156 18830ft 361kts
13-Jan-23 17:43 34.996797 -118.918714 156 21047ft 375kts
13-Jan-23 17:44 34.907462 -118.848935 156 23073ft 391kts
13-Jan-23 17:45 34.814770 -118.776737 156 23209ft 406kts
13-Jan-23 17:46 34.717139 -118.700932 156 23209ft 422kts
13-Jan-23 17:47 34.617724 -118.623761 155 23203ft 425kts
13-Jan-23 17:48 34.516906 -118.549682 158 23193ft 423kts
13-Jan-23 17:49 34.415161 -118.477656 157 23187ft 424kts
13-Jan-23 17:50 34.313525 -118.405449 157 23179ft 423kts
13-Jan-23 17:51 34.211949 -118.333481 157 23169ft 424kts
13-Jan-23 17:52 34.111111 -118.262239 157 23163ft 424kts
13-Jan-23 17:52 34.026345 -118.202504 157 23166ft 424kts
13-Jan-23 17:54 33.907142 -118.118735 157 23163ft 425kts
13-Jan-23 17:55 33.804818 -118.048076 158 23155ft 423kts
13-Jan-23 17:56 33.701522 -117.980213 158 23151ft 423kts
13-Jan-23 17:57 33.598395 -117.912183 158 23158ft 423kts
13-Jan-23 17:58 33.497780 -117.844987 157 22758ft 406kts
13-Jan-23 17:58 33.419888 -117.783312 148 21185ft 402kts
13-Jan-23 17:59 33.337463 -117.695242 145 19336ft 392kts
13-Jan-23 18:00 33.257053 -117.609541 145 17535ft 383kts
13-Jan-23 18:01 33.179127 -117.527315 145 15724ft 363kts
13-Jan-23 18:03 33.090491 -117.444157 151 13629ft 337kts
13-Jan-23 18:03 33.029168 -117.393164 150 12073ft 296kts
13-Jan-23 18:04 32.964013 -117.338627 149 10676ft 276kts
13-Jan-23 18:05 32.903494 -117.288047 148 9483ft 263kts
13-Jan-23 18:06 32.844845 -117.239341 148 8339ft 248kts
13-Jan-23 18:07 32.804413 -117.177561 104 7242ft 244kts
13-Jan-23 18:08 32.787547 -117.102565 106 6307ft 222kts
13-Jan-23 18:09 32.772233 -117.032309 103 5534ft 218kts
13-Jan-23 18:10 32.750962 -116.966689 132 4500ft 210kts
13-Jan-23 18:11 32.698439 -116.965546 215 3565ft 198kts
13-Jan-23 18:12 32.691326 -117.018576 296 2849ft 181kts
13-Jan-23 18:13 32.704914 -117.072670 286 2471ft 165kts
13-Jan-23 18:14 32.716622 -117.119836 285 1117ft 134kts
13-Jan-23 18:15 32.726932 -117.162335 286 452ft 135kts
13-Jan-23 18:16 32.734851 -117.195015 286 25ft 30kts
13-Jan-23 18:17 32.734751 -117.199326 233 25ft 6kts
13-Jan-23 18:18 32.733037 -117.200639 275 25ft 2kts

Navigation Log

Ident Type
Flight plan parsing failed, navigation log unavailable